Bluffs, Illinois
Current Conditions -  °F | °C
As of 1:55 PM on Sunday 21 Dec 2014 (Local Time) from KPPQ Reporting Station
Overcast Overcast  
Wind Chill: 37°   Ceiling: 3500
Heat Index: 43°   Visibility: 10mi
Dew Point: 37°   Wind: 12mph
Humidity: 78%   Direction: 150°SSE
Pressure: 30.02"   Gusts: NA
Location:  39.75°N, 90.54°W
Report Text: KPPQ 211955Z AUTO 15010KT 10SM OVC035 06/03 A3002 RMK AO2 T00610025
Loading
Personal Weather Stations






























Interactive Weather Map New forecast layout! Learn more

10-Day Weather Forecast

Advertisements
Track Severe Weather on mobile